sensor_id;sensor_type;location;lat;lon;timestamp;pressure;altitude;pressure_sealevel;temperature;humidity
79138;BME280;68544;45.566;10.238;2023-11-18T00:00:17;63289.31;;;10.76;40.95
79138;BME280;68544;45.566;10.238;2023-11-18T00:02:43;63288.25;;;10.75;40.47
79138;BME280;68544;45.566;10.238;2023-11-18T00:05:09;63287.03;;;10.74;39.28
79138;BME280;68544;45.566;10.238;2023-11-18T00:07:34;63286.59;;;10.73;40.49
79138;BME280;68544;45.566;10.238;2023-11-18T00:09:59;63286.31;;;10.73;41.03
79138;BME280;68544;45.566;10.238;2023-11-18T00:12:25;63286.25;;;10.73;40.61
79138;BME280;68544;45.566;10.238;2023-11-18T00:14:50;63286.22;;;10.73;41.11
79138;BME280;68544;45.566;10.238;2023-11-18T00:17:15;63284.19;;;10.71;41.24
79138;BME280;68544;45.566;10.238;2023-11-18T00:19:41;63277.47;;;10.65;43.14
79138;BME280;68544;45.566;10.238;2023-11-18T00:22:07;63270.31;;;10.59;43.37
79138;BME280;68544;45.566;10.238;2023-11-18T00:24:32;63265.09;;;10.54;42.94
79138;BME280;68544;45.566;10.238;2023-11-18T00:27:00;63261.91;;;10.51;42.57
79138;BME280;68544;45.566;10.238;2023-11-18T00:29:25;63259.09;;;10.49;42.18
79138;BME280;68544;45.566;10.238;2023-11-18T00:31:50;63254.72;;;10.44;41.35
79138;BME280;68544;45.566;10.238;2023-11-18T00:34:15;63252.34;;;10.42;40.52
79138;BME280;68544;45.566;10.238;2023-11-18T00:36:40;63250.47;;;10.40;39.95
79138;BME280;68544;45.566;10.238;2023-11-18T00:39:06;63249.84;;;10.40;39.79
79138;BME280;68544;45.566;10.238;2023-11-18T00:41:31;63247.91;;;10.38;40.88
79138;BME280;68544;45.566;10.238;2023-11-18T00:43:56;63246.50;;;10.37;41.47
79138;BME280;68544;45.566;10.238;2023-11-18T00:46:21;63246.22;;;10.36;41.18
79138;BME280;68544;45.566;10.238;2023-11-18T00:48:47;63247.16;;;10.37;41.28
79138;BME280;68544;45.566;10.238;2023-11-18T00:51:12;63246.38;;;10.36;41.41
79138;BME280;68544;45.566;10.238;2023-11-18T00:53:38;63243.81;;;10.34;42.54
79138;BME280;68544;45.566;10.238;2023-11-18T00:56:03;63241.91;;;10.32;42.46
79138;BME280;68544;45.566;10.238;2023-11-18T00:58:32;63240.72;;;10.31;42.41
79138;BME280;68544;45.566;10.238;2023-11-18T01:01:00;63238.31;;;10.29;42.47
79138;BME280;68544;45.566;10.238;2023-11-18T01:03:25;63235.31;;;10.26;42.13
79138;BME280;68544;45.566;10.238;2023-11-18T01:05:51;63231.72;;;10.23;42.17
79138;BME280;68544;45.566;10.238;2023-11-18T01:08:16;63227.13;;;10.19;42.42
79138;BME280;68544;45.566;10.238;2023-11-18T01:10:42;63224.56;;;10.17;42.32
79138;BME280;68544;45.566;10.238;2023-11-18T01:13:07;63222.88;;;10.15;42.58
79138;BME280;68544;45.566;10.238;2023-11-18T01:15:34;63221.00;;;10.13;43.16
79138;BME280;68544;45.566;10.238;2023-11-18T01:17:59;63220.41;;;10.13;43.05
79138;BME280;68544;45.566;10.238;2023-11-18T01:20:24;63220.41;;;10.13;42.46
79138;BME280;68544;45.566;10.238;2023-11-18T01:22:49;63218.56;;;10.11;43.32
79138;BME280;68544;45.566;10.238;2023-11-18T01:25:15;63215.38;;;10.09;44.83
79138;BME280;68544;45.566;10.238;2023-11-18T01:27:43;63213.44;;;10.07;44.35
79138;BME280;68544;45.566;10.238;2023-11-18T01:30:12;63212.28;;;10.06;44.18
79138;BME280;68544;45.566;10.238;2023-11-18T01:32:37;63206.09;;;10.01;45.27
79138;BME280;68544;45.566;10.238;2023-11-18T01:35:05;63202.94;;;9.98;44.07
79138;BME280;68544;45.566;10.238;2023-11-18T01:37:30;63201.78;;;9.97;43.22
79138;BME280;68544;45.566;10.238;2023-11-18T01:39:57;63196.84;;;9.93;43.94
79138;BME280;68544;45.566;10.238;2023-11-18T01:42:22;63195.03;;;9.91;43.57
79138;BME280;68544;45.566;10.238;2023-11-18T01:44:47;63191.84;;;9.88;43.02
79138;BME280;68544;45.566;10.238;2023-11-18T01:47:13;63188.59;;;9.85;43.90
79138;BME280;68544;45.566;10.238;2023-11-18T01:49:39;63186.03;;;9.83;43.17
79138;BME280;68544;45.566;10.238;2023-11-18T01:52:09;63184.72;;;9.81;43.00
79138;BME280;68544;45.566;10.238;2023-11-18T01:54:36;63183.31;;;9.80;42.98
79138;BME280;68544;45.566;10.238;2023-11-18T01:57:02;63181.44;;;9.79;42.74
79138;BME280;68544;45.566;10.238;2023-11-18T01:59:31;63179.66;;;9.77;44.19
79138;BME280;68544;45.566;10.238;2023-11-18T02:01:58;63178.22;;;9.75;44.53
79138;BME280;68544;45.566;10.238;2023-11-18T02:04:24;63176.22;;;9.73;44.53
79138;BME280;68544;45.566;10.238;2023-11-18T02:06:49;63176.00;;;9.73;43.99
79138;BME280;68544;45.566;10.238;2023-11-18T02:09:15;63173.63;;;9.71;45.15
79138;BME280;68544;45.566;10.238;2023-11-18T02:14:22;63169.91;;;9.67;45.41
79138;BME280;68544;45.566;10.238;2023-11-18T02:16:51;63168.72;;;9.66;45.34
79138;BME280;68544;45.566;10.238;2023-11-18T02:19:21;63166.31;;;9.64;44.72
79138;BME280;68544;45.566;10.238;2023-11-18T02:21:49;63164.41;;;9.62;44.00
79138;BME280;68544;45.566;10.238;2023-11-18T02:24:33;63161.75;;;9.60;43.83
79138;BME280;68544;45.566;10.238;2023-11-18T02:27:02;63160.75;;;9.58;43.59
79138;BME280;68544;45.566;10.238;2023-11-18T02:29:32;63161.09;;;9.58;43.18
79138;BME280;68544;45.566;10.238;2023-11-18T02:32:03;63160.22;;;9.58;43.66
79138;BME280;68544;45.566;10.238;2023-11-18T02:34:33;63159.34;;;9.57;43.57
79138;BME280;68544;45.566;10.238;2023-11-18T02:37:03;63158.03;;;9.56;43.89
79138;BME280;68544;45.566;10.238;2023-11-18T02:39:35;63154.94;;;9.53;45.48
79138;BME280;68544;45.566;10.238;2023-11-18T02:42:04;63153.81;;;9.52;45.22
79138;BME280;68544;45.566;10.238;2023-11-18T02:44:33;63154.41;;;9.53;43.63
79138;BME280;68544;45.566;10.238;2023-11-18T02:46:59;63154.94;;;9.53;44.46
79138;BME280;68544;45.566;10.238;2023-11-18T02:49:25;63154.41;;;9.53;45.47
79138;BME280;68544;45.566;10.238;2023-11-18T02:51:50;63152.56;;;9.51;45.82
79138;BME280;68544;45.566;10.238;2023-11-18T02:54:15;63153.28;;;9.52;45.24
79138;BME280;68544;45.566;10.238;2023-11-18T02:56:41;63152.09;;;9.51;46.76
79138;BME280;68544;45.566;10.238;2023-11-18T02:59:06;63151.31;;;9.50;46.96
79138;BME280;68544;45.566;10.238;2023-11-18T03:01:32;63149.88;;;9.48;47.28
79138;BME280;68544;45.566;10.238;2023-11-18T03:03:58;63148.81;;;9.47;46.74
79138;BME280;68544;45.566;10.238;2023-11-18T03:06:24;63148.09;;;9.46;46.03
79138;BME280;68544;45.566;10.238;2023-11-18T03:08:50;63141.81;;;9.41;46.57
79138;BME280;68544;45.566;10.238;2023-11-18T03:11:15;63138.63;;;9.38;46.08
79138;BME280;68544;45.566;10.238;2023-11-18T03:13:40;63135.84;;;9.36;45.83
79138;BME280;68544;45.566;10.238;2023-11-18T03:16:08;63132.91;;;9.33;45.85
79138;BME280;68544;45.566;10.238;2023-11-18T03:18:41;63131.06;;;9.31;45.32
79138;BME280;68544;45.566;10.238;2023-11-18T03:21:10;63129.72;;;9.30;45.23
79138;BME280;68544;45.566;10.238;2023-11-18T03:23:37;63130.03;;;9.30;45.02
79138;BME280;68544;45.566;10.238;2023-11-18T03:26:02;63129.53;;;9.29;44.99
79138;BME280;68544;45.566;10.238;2023-11-18T03:28:27;63128.47;;;9.28;45.14
79138;BME280;68544;45.566;10.238;2023-11-18T03:30:53;63129.25;;;9.29;44.62
79138;BME280;68544;45.566;10.238;2023-11-18T03:33:18;63131.56;;;9.31;44.06
79138;BME280;68544;45.566;10.238;2023-11-18T03:35:44;63130.59;;;9.30;46.02
79138;BME280;68544;45.566;10.238;2023-11-18T03:38:09;63130.59;;;9.30;46.55
79138;BME280;68544;45.566;10.238;2023-11-18T03:40:34;63131.19;;;9.31;45.92
79138;BME280;68544;45.566;10.238;2023-11-18T03:43:00;63131.03;;;9.31;46.17
79138;BME280;68544;45.566;10.238;2023-11-18T03:45:25;63131.28;;;9.31;46.75
79138;BME280;68544;45.566;10.238;2023-11-18T03:47:51;63130.03;;;9.30;47.47
79138;BME280;68544;45.566;10.238;2023-11-18T03:50:16;63128.72;;;9.29;47.69
79138;BME280;68544;45.566;10.238;2023-11-18T03:52:42;63127.81;;;9.28;47.71
79138;BME280;68544;45.566;10.238;2023-11-18T03:55:07;63124.56;;;9.25;48.68
79138;BME280;68544;45.566;10.238;2023-11-18T03:57:33;63121.59;;;9.22;48.76
79138;BME280;68544;45.566;10.238;2023-11-18T03:59:59;63118.31;;;9.20;48.62
79138;BME280;68544;45.566;10.238;2023-11-18T04:02:24;63116.41;;;9.18;47.94
79138;BME280;68544;45.566;10.238;2023-11-18T04:04:49;63115.53;;;9.18;47.62
79138;BME280;68544;45.566;10.238;2023-11-18T04:07:15;63115.69;;;9.18;47.20
79138;BME280;68544;45.566;10.238;2023-11-18T04:09:40;63115.00;;;9.17;46.73
79138;BME280;68544;45.566;10.238;2023-11-18T04:12:09;63112.97;;;9.15;46.15
79138;BME280;68544;45.566;10.238;2023-11-18T04:14:35;63108.44;;;9.11;47.50
79138;BME280;68544;45.566;10.238;2023-11-18T04:17:01;63105.00;;;9.08;46.62
79138;BME280;68544;45.566;10.238;2023-11-18T04:19:26;63103.88;;;9.07;46.17
79138;BME280;68544;45.566;10.238;2023-11-18T04:21:52;63102.97;;;9.06;45.96
79138;BME280;68544;45.566;10.238;2023-11-18T04:24:17;63100.88;;;9.04;47.35
79138;BME280;68544;45.566;10.238;2023-11-18T04:26:42;63100.97;;;9.04;47.16
79138;BME280;68544;45.566;10.238;2023-11-18T04:29:07;63101.31;;;9.05;46.82
79138;BME280;68544;45.566;10.238;2023-11-18T04:31:33;63100.53;;;9.04;48.12
79138;BME280;68544;45.566;10.238;2023-11-18T04:33:59;63098.66;;;9.02;48.68
79138;BME280;68544;45.566;10.238;2023-11-18T04:36:24;63097.59;;;9.01;48.95
79138;BME280;68544;45.566;10.238;2023-11-18T04:38:51;63095.47;;;8.99;49.43
79138;BME280;68544;45.566;10.238;2023-11-18T04:41:16;63092.38;;;8.96;50.14
79138;BME280;68544;45.566;10.238;2023-11-18T04:43:42;63090.63;;;8.95;49.35
79138;BME280;68544;45.566;10.238;2023-11-18T04:46:07;63088.88;;;8.93;49.26
79138;BME280;68544;45.566;10.238;2023-11-18T04:48:32;63087.44;;;8.92;48.21
79138;BME280;68544;45.566;10.238;2023-11-18T04:50:59;63086.28;;;8.91;48.19
79138;BME280;68544;45.566;10.238;2023-11-18T04:53:24;63084.78;;;8.89;47.76
79138;BME280;68544;45.566;10.238;2023-11-18T04:55:50;63084.50;;;8.89;47.39
79138;BME280;68544;45.566;10.238;2023-11-18T04:58:16;63081.16;;;8.86;48.34
79138;BME280;68544;45.566;10.238;2023-11-18T05:00:41;63078.88;;;8.84;48.93
79138;BME280;68544;45.566;10.238;2023-11-18T05:03:07;63077.44;;;8.83;48.38
79138;BME280;68544;45.566;10.238;2023-11-18T05:05:39;63075.69;;;8.81;48.83
79138;BME280;68544;45.566;10.238;2023-11-18T05:08:04;63074.97;;;8.81;48.04
79138;BME280;68544;45.566;10.238;2023-11-18T05:10:31;63075.84;;;8.81;48.19
79138;BME280;68544;45.566;10.238;2023-11-18T05:12:56;63076.81;;;8.82;46.33
79138;BME280;68544;45.566;10.238;2023-11-18T05:15:22;63078.31;;;8.83;46.80
79138;BME280;68544;45.566;10.238;2023-11-18T05:17:50;63079.97;;;8.84;47.74
79138;BME280;68544;45.566;10.238;2023-11-18T05:20:16;63081.28;;;8.86;48.17
79138;BME280;68544;45.566;10.238;2023-11-18T05:22:41;63080.88;;;8.85;48.82
79138;BME280;68544;45.566;10.238;2023-11-18T05:25:06;63079.78;;;8.84;49.27
79138;BME280;68544;45.566;10.238;2023-11-18T05:27:33;63076.47;;;8.82;50.39
79138;BME280;68544;45.566;10.238;2023-11-18T05:29:58;63076.03;;;8.81;48.85
79138;BME280;68544;45.566;10.238;2023-11-18T05:32:26;63076.44;;;8.81;47.49
79138;BME280;68544;45.566;10.238;2023-11-18T05:34:52;63077.41;;;8.82;48.64
79138;BME280;68544;45.566;10.238;2023-11-18T05:37:20;63077.75;;;8.82;48.89
79138;BME280;68544;45.566;10.238;2023-11-18T05:39:45;63078.19;;;8.82;49.38
79138;BME280;68544;45.566;10.238;2023-11-18T05:42:11;63078.00;;;8.82;48.91
79138;BME280;68544;45.566;10.238;2023-11-18T05:44:37;63076.59;;;8.81;48.03
79138;BME280;68544;45.566;10.238;2023-11-18T05:47:04;63076.16;;;8.81;48.11
79138;BME280;68544;45.566;10.238;2023-11-18T05:49:29;63073.59;;;8.78;48.00
79138;BME280;68544;45.566;10.238;2023-11-18T05:51:54;63070.66;;;8.75;48.47
79138;BME280;68544;45.566;10.238;2023-11-18T05:54:21;63068.09;;;8.73;48.33
79138;BME280;68544;45.566;10.238;2023-11-18T05:56:46;63067.50;;;8.73;47.19
79138;BME280;68544;45.566;10.238;2023-11-18T05:59:11;63067.31;;;8.72;48.01
79138;BME280;68544;45.566;10.238;2023-11-18T06:01:38;63065.53;;;8.71;49.32
79138;BME280;68544;45.566;10.238;2023-11-18T06:04:03;63063.31;;;8.69;49.94
79138;BME280;68544;45.566;10.238;2023-11-18T06:06:29;63061.72;;;8.67;49.72
79138;BME280;68544;45.566;10.238;2023-11-18T06:08:54;63060.25;;;8.66;49.88
79138;BME280;68544;45.566;10.238;2023-11-18T06:11:19;63059.06;;;8.65;49.22
79138;BME280;68544;45.566;10.238;2023-11-18T06:13:46;63057.84;;;8.64;49.03
79138;BME280;68544;45.566;10.238;2023-11-18T06:18:43;63057.72;;;8.63;47.12
79138;BME280;68544;45.566;10.238;2023-11-18T06:21:12;63057.28;;;8.62;47.20
79138;BME280;68544;45.566;10.238;2023-11-18T06:23:37;63055.28;;;8.60;49.77
79138;BME280;68544;45.566;10.238;2023-11-18T06:26:02;63055.28;;;8.60;48.83
79138;BME280;68544;45.566;10.238;2023-11-18T06:28:29;63056.63;;;8.61;47.96
79138;BME280;68544;45.566;10.238;2023-11-18T06:30:54;63057.44;;;8.62;48.49
79138;BME280;68544;45.566;10.238;2023-11-18T06:33:19;63058.28;;;8.63;48.26
79138;BME280;68544;45.566;10.238;2023-11-18T06:35:48;63059.91;;;8.64;47.15
79138;BME280;68544;45.566;10.238;2023-11-18T06:38:13;63060.25;;;8.65;47.40
79138;BME280;68544;45.566;10.238;2023-11-18T06:40:38;63058.13;;;8.63;47.73
79138;BME280;68544;45.566;10.238;2023-11-18T06:43:04;63052.31;;;8.58;48.18
79138;BME280;68544;45.566;10.238;2023-11-18T06:45:35;63051.25;;;8.57;46.81
79138;BME280;68544;45.566;10.238;2023-11-18T06:48:02;63050.78;;;8.56;46.80
79138;BME280;68544;45.566;10.238;2023-11-18T06:50:28;63050.44;;;8.55;46.83
79138;BME280;68544;45.566;10.238;2023-11-18T06:52:54;63050.97;;;8.56;46.45
79138;BME280;68544;45.566;10.238;2023-11-18T06:55:20;63052.72;;;8.57;45.84
79138;BME280;68544;45.566;10.238;2023-11-18T06:57:46;63052.63;;;8.57;45.86
79138;BME280;68544;45.566;10.238;2023-11-18T07:00:12;63053.41;;;8.58;45.60
79138;BME280;68544;45.566;10.238;2023-11-18T07:02:39;63055.78;;;8.60;45.39
79138;BME280;68544;45.566;10.238;2023-11-18T07:05:04;63058.50;;;8.62;45.17
79138;BME280;68544;45.566;10.238;2023-11-18T07:07:31;63061.19;;;8.65;45.10
79138;BME280;68544;45.566;10.238;2023-11-18T07:09:57;63064.16;;;8.67;45.01
79138;BME280;68544;45.566;10.238;2023-11-18T07:12:22;63064.28;;;8.68;45.59
79138;BME280;68544;45.566;10.238;2023-11-18T07:14:48;63063.72;;;8.67;45.94
79138;BME280;68544;45.566;10.238;2023-11-18T07:17:13;63063.03;;;8.66;46.37
79138;BME280;68544;45.566;10.238;2023-11-18T07:19:38;63063.91;;;8.67;46.14
79138;BME280;68544;45.566;10.238;2023-11-18T07:22:05;63065.31;;;8.68;46.02
79138;BME280;68544;45.566;10.238;2023-11-18T07:24:31;63066.63;;;8.69;46.37
79138;BME280;68544;45.566;10.238;2023-11-18T07:26:57;63070.25;;;8.73;45.50
79138;BME280;68544;45.566;10.238;2023-11-18T07:29:23;63072.72;;;8.75;46.42
79138;BME280;68544;45.566;10.238;2023-11-18T07:31:48;63074.56;;;8.77;46.50
79138;BME280;68544;45.566;10.238;2023-11-18T07:34:14;63076.97;;;8.79;46.19
79138;BME280;68544;45.566;10.238;2023-11-18T07:36:40;63080.47;;;8.82;46.05
79138;BME280;68544;45.566;10.238;2023-11-18T07:39:05;63084.28;;;8.85;45.81
79138;BME280;68544;45.566;10.238;2023-11-18T07:41:40;63088.69;;;8.89;46.02
79138;BME280;68544;45.566;10.238;2023-11-18T07:44:06;63093.72;;;8.94;45.49
79138;BME280;68544;45.566;10.238;2023-11-18T07:46:31;63099.75;;;8.99;45.87
79138;BME280;68544;45.566;10.238;2023-11-18T07:48:56;63105.47;;;9.05;46.03
79138;BME280;68544;45.566;10.238;2023-11-18T07:51:21;63111.59;;;9.10;44.55
79138;BME280;68544;45.566;10.238;2023-11-18T07:53:48;63120.16;;;9.18;44.15
79138;BME280;68544;45.566;10.238;2023-11-18T07:56:14;63129.97;;;9.27;43.12
79138;BME280;68544;45.566;10.238;2023-11-18T07:58:41;63140.56;;;9.37;43.53
79138;BME280;68544;45.566;10.238;2023-11-18T08:01:10;63152.22;;;9.47;43.15
79138;BME280;68544;45.566;10.238;2023-11-18T08:03:35;63164.00;;;9.58;41.51
79138;BME280;68544;45.566;10.238;2023-11-18T08:06:02;63176.97;;;9.69;41.16
79138;BME280;68544;45.566;10.238;2023-11-18T08:08:28;63191.34;;;9.82;39.62
79138;BME280;68544;45.566;10.238;2023-11-18T08:10:53;63206.00;;;9.95;39.61
79138;BME280;68544;45.566;10.238;2023-11-18T08:13:20;63221.94;;;10.10;38.51
79138;BME280;68544;45.566;10.238;2023-11-18T08:15:46;63239.56;;;10.26;37.93
79138;BME280;68544;45.566;10.238;2023-11-18T08:18:11;63257.50;;;10.42;37.05
79138;BME280;68544;45.566;10.238;2023-11-18T08:20:37;63274.41;;;10.57;37.54
79138;BME280;68544;45.566;10.238;2023-11-18T08:23:03;63291.31;;;10.73;37.22
79138;BME280;68544;45.566;10.238;2023-11-18T08:25:29;63309.56;;;10.89;36.28
79138;BME280;68544;45.566;10.238;2023-11-18T08:27:55;63328.66;;;11.06;35.90
79138;BME280;68544;45.566;10.238;2023-11-18T08:30:20;63347.56;;;11.23;34.83
79138;BME280;68544;45.566;10.238;2023-11-18T08:32:46;63364.31;;;11.38;35.18
79138;BME280;68544;45.566;10.238;2023-11-18T08:35:14;63383.28;;;11.56;34.53
79138;BME280;68544;45.566;10.238;2023-11-18T08:37:40;63401.81;;;11.72;34.72
79138;BME280;68544;45.566;10.238;2023-11-18T08:40:07;63420.88;;;11.90;33.87
79138;BME280;68544;45.566;10.238;2023-11-18T08:42:40;63441.16;;;12.08;33.18
79138;BME280;68544;45.566;10.238;2023-11-18T08:45:06;63461.44;;;12.26;32.92
79138;BME280;68544;45.566;10.238;2023-11-18T08:47:32;63479.28;;;12.43;32.19
79138;BME280;68544;45.566;10.238;2023-11-18T08:49:57;63496.91;;;12.59;32.13
79138;BME280;68544;45.566;10.238;2023-11-18T08:52:23;63515.47;;;12.76;32.23
79138;BME280;68544;45.566;10.238;2023-11-18T08:54:50;63534.97;;;12.93;32.14
79138;BME280;68544;45.566;10.238;2023-11-18T08:57:34;63555.19;;;13.11;32.12
79138;BME280;68544;45.566;10.238;2023-11-18T09:00:16;63574.56;;;13.29;31.17
79138;BME280;68544;45.566;10.238;2023-11-18T09:03:01;63595.59;;;13.48;30.66
79138;BME280;68544;45.566;10.238;2023-11-18T09:05:27;63616.28;;;13.67;30.46
79138;BME280;68544;45.566;10.238;2023-11-18T09:07:56;63637.25;;;13.86;30.47
79138;BME280;68544;45.566;10.238;2023-11-18T09:10:22;63657.41;;;14.04;29.58
79138;BME280;68544;45.566;10.238;2023-11-18T09:12:48;63677.72;;;14.22;29.51
79138;BME280;68544;45.566;10.238;2023-11-18T09:15:13;63698.47;;;14.41;29.12
79138;BME280;68544;45.566;10.238;2023-11-18T09:17:47;63719.50;;;14.60;29.11
79138;BME280;68544;45.566;10.238;2023-11-18T09:20:13;63740.47;;;14.79;28.95
79138;BME280;68544;45.566;10.238;2023-11-18T09:22:38;63761.56;;;14.99;28.38
79138;BME280;68544;45.566;10.238;2023-11-18T09:25:04;63782.66;;;15.18;28.16
79138;BME280;68544;45.566;10.238;2023-11-18T09:27:34;63803.16;;;15.37;27.53
79138;BME280;68544;45.566;10.238;2023-11-18T09:29:59;63824.81;;;15.57;26.44
79138;BME280;68544;45.566;10.238;2023-11-18T09:32:25;63846.78;;;15.77;25.96
79138;BME280;68544;45.566;10.238;2023-11-18T09:34:51;63868.75;;;15.97;25.86
79138;BME280;68544;45.566;10.238;2023-11-18T09:37:18;63890.75;;;16.17;26.14
79138;BME280;68544;45.566;10.238;2023-11-18T09:39:45;63912.19;;;16.36;25.71
79138;BME280;68544;45.566;10.238;2023-11-18T09:42:11;63932.88;;;16.55;25.43
79138;BME280;68544;45.566;10.238;2023-11-18T09:44:39;63954.06;;;16.74;24.13
79138;BME280;68544;45.566;10.238;2023-11-18T09:47:07;63975.50;;;16.93;24.06
79138;BME280;68544;45.566;10.238;2023-11-18T09:49:35;63996.44;;;17.12;23.65
79138;BME280;68544;45.566;10.238;2023-11-18T09:52:05;64017.91;;;17.31;22.63
79138;BME280;68544;45.566;10.238;2023-11-18T09:54:40;64038.59;;;17.50;22.32
79138;BME280;68544;45.566;10.238;2023-11-18T10:02:23;64110.47;;;18.15;21.76
79138;BME280;68544;45.566;10.238;2023-11-18T10:04:49;64148.09;;;18.49;20.85
79138;BME280;68544;45.566;10.238;2023-11-18T10:07:22;64193.28;;;18.89;19.25
79138;BME280;68544;45.566;10.238;2023-11-18T10:09:47;64240.59;;;19.32;17.22
79138;BME280;68544;45.566;10.238;2023-11-18T10:12:14;64290.09;;;19.77;17.03
79138;BME280;68544;45.566;10.238;2023-11-18T10:14:42;64345.63;;;20.27;16.66
79138;BME280;68544;45.566;10.238;2023-11-18T10:17:08;64402.25;;;20.78;15.50
79138;BME280;68544;45.566;10.238;2023-11-18T10:19:50;64455.69;;;21.26;15.52
79138;BME280;68544;45.566;10.238;2023-11-18T10:22:26;64511.19;;;21.76;15.25
79138;BME280;68544;45.566;10.238;2023-11-18T10:24:52;64554.97;;;22.16;15.99
79138;BME280;68544;45.566;10.238;2023-11-18T10:27:23;64587.94;;;22.46;17.23
79138;BME280;68544;45.566;10.238;2023-11-18T10:29:50;64613.75;;;22.69;17.59
79138;BME280;68544;45.566;10.238;2023-11-18T10:32:17;64634.53;;;22.87;18.18
79138;BME280;68544;45.566;10.238;2023-11-18T10:34:46;64653.53;;;23.04;18.35
79138;BME280;68544;45.566;10.238;2023-11-18T10:37:12;64672.25;;;23.21;17.65
79138;BME280;68544;45.566;10.238;2023-11-18T10:39:37;64693.06;;;23.40;17.77
79138;BME280;68544;45.566;10.238;2023-11-18T10:42:02;64725.63;;;23.69;15.75
79138;BME280;68544;45.566;10.238;2023-11-18T10:44:28;64767.16;;;24.07;14.05
79138;BME280;68544;45.566;10.238;2023-11-18T10:46:54;64818.38;;;24.53;12.20
79138;BME280;68544;45.566;10.238;2023-11-18T10:49:23;64879.91;;;25.08;10.94
79138;BME280;68544;45.566;10.238;2023-11-18T10:51:50;64939.03;;;25.62;10.52
79138;BME280;68544;45.566;10.238;2023-11-18T10:54:15;64996.56;;;26.14;9.98
79138;BME280;68544;45.566;10.238;2023-11-18T10:56:49;65056.44;;;26.68;9.84
79138;BME280;68544;45.566;10.238;2023-11-18T10:59:15;65116.44;;;27.22;8.51
79138;BME280;68544;45.566;10.238;2023-11-18T11:01:41;65177.31;;;27.76;8.78
79138;BME280;68544;45.566;10.238;2023-11-18T11:06:35;65290.88;;;28.79;8.48
79138;BME280;68544;45.566;10.238;2023-11-18T11:09:06;65347.63;;;29.30;8.39
79138;BME280;68544;45.566;10.238;2023-11-18T11:11:39;65397.25;;;29.75;8.45
79138;BME280;68544;45.566;10.238;2023-11-18T11:14:05;65447.69;;;30.21;7.98
79138;BME280;68544;45.566;10.238;2023-11-18T11:16:40;65489.41;;;30.59;8.57
79138;BME280;68544;45.566;10.238;2023-11-18T11:19:08;65525.19;;;30.91;9.54
79138;BME280;68544;45.566;10.238;2023-11-18T11:21:44;65553.25;;;31.16;10.03
79138;BME280;68544;45.566;10.238;2023-11-18T11:24:20;65577.13;;;31.38;10.50
79138;BME280;68544;45.566;10.238;2023-11-18T11:29:36;65628.09;;;31.84;10.22
79138;BME280;68544;45.566;10.238;2023-11-18T11:34:31;65678.09;;;32.29;9.61
79138;BME280;68544;45.566;10.238;2023-11-18T11:36:59;65703.69;;;32.53;9.44
79138;BME280;68544;45.566;10.238;2023-11-18T11:39:24;65731.28;;;32.78;9.69
79138;BME280;68544;45.566;10.238;2023-11-18T11:41:55;65754.00;;;32.98;9.83
79138;BME280;68544;45.566;10.238;2023-11-18T11:44:21;65776.16;;;33.18;9.84
79138;BME280;68544;45.566;10.238;2023-11-18T11:46:52;65794.56;;;33.35;9.30
79138;BME280;68544;45.566;10.238;2023-11-18T11:49:21;65811.06;;;33.51;8.91
79138;BME280;68544;45.566;10.238;2023-11-18T11:51:48;65821.03;;;33.60;8.70
79138;BME280;68544;45.566;10.238;2023-11-18T11:54:20;65832.56;;;33.71;8.09
79138;BME280;68544;45.566;10.238;2023-11-18T11:56:48;65846.44;;;33.84;8.46
79138;BME280;68544;45.566;10.238;2023-11-18T11:59:35;65861.09;;;33.98;9.23
79138;BME280;68544;45.566;10.238;2023-11-18T12:02:02;65869.81;;;34.06;10.43
79138;BME280;68544;45.566;10.238;2023-11-18T12:04:32;65877.72;;;34.13;10.40
79138;BME280;68544;45.566;10.238;2023-11-18T12:06:57;65887.03;;;34.22;10.60
79138;BME280;68544;45.566;10.238;2023-11-18T12:09:29;65895.00;;;34.29;10.66
79138;BME280;68544;45.566;10.238;2023-11-18T12:11:57;65896.47;;;34.30;11.00
79138;BME280;68544;45.566;10.238;2023-11-18T12:14:24;65886.06;;;34.22;11.23
79138;BME280;68544;45.566;10.238;2023-11-18T12:19:34;65847.91;;;33.88;12.91
79138;BME280;68544;45.566;10.238;2023-11-18T12:22:15;65814.75;;;33.59;13.92
79138;BME280;68544;45.566;10.238;2023-11-18T12:27:45;65732.81;;;32.86;15.56
79138;BME280;68544;45.566;10.238;2023-11-18T12:32:58;65639.69;;;32.04;16.83
79138;BME280;68544;45.566;10.238;2023-11-18T12:41:00;65492.00;;;30.73;18.52
79138;BME280;68544;45.566;10.238;2023-11-18T12:43:40;65445.25;;;30.31;19.30
79138;BME280;68544;45.566;10.238;2023-11-18T12:48:52;65351.75;;;29.48;20.99
79138;BME280;68544;45.566;10.238;2023-11-18T12:51:21;65307.78;;;29.08;21.37
79138;BME280;68544;45.566;10.238;2023-11-18T12:53:47;65263.22;;;28.68;21.87
79138;BME280;68544;45.566;10.238;2023-11-18T12:56:16;65219.84;;;28.29;22.48
79138;BME280;68544;45.566;10.238;2023-11-18T12:58:42;65176.00;;;27.90;23.40
79138;BME280;68544;45.566;10.238;2023-11-18T13:01:08;65135.00;;;27.53;23.47
79138;BME280;68544;45.566;10.238;2023-11-18T13:03:39;65096.72;;;27.19;23.55
79138;BME280;68544;45.566;10.238;2023-11-18T13:06:06;65060.81;;;26.86;22.96
79138;BME280;68544;45.566;10.238;2023-11-18T13:08:31;65025.13;;;26.54;23.99
79138;BME280;68544;45.566;10.238;2023-11-18T13:10:56;64990.81;;;26.23;24.70
79138;BME280;68544;45.566;10.238;2023-11-18T13:13:28;64957.16;;;25.93;25.17
79138;BME280;68544;45.566;10.238;2023-11-18T13:15:54;64923.53;;;25.63;25.46
79138;BME280;68544;45.566;10.238;2023-11-18T13:18:20;64891.34;;;25.35;25.64
79138;BME280;68544;45.566;10.238;2023-11-18T13:20:55;64861.25;;;25.07;26.09
79138;BME280;68544;45.566;10.238;2023-11-18T13:23:20;64831.72;;;24.80;25.98
79138;BME280;68544;45.566;10.238;2023-11-18T13:25:46;64802.00;;;24.53;26.01
79138;BME280;68544;45.566;10.238;2023-11-18T13:28:12;64773.09;;;24.27;25.85